Terminal Aerodrome Forecast
Issued by NWS

Home | Current Version | Previous Version | Text Only | Print | Product List | Glossary On
Versions: 1 2 3 4 5 6 7 8 9 10 11 12 13 14 15 16 17 18 19 20 21 22 23 24 25 26 27 28 29 30 31 32 33 34 35
000
FTPA31 PHFO 311700
TAFITO
TAF
PHTO 311727Z 3118/0118 25006KT P6SM VCSH SCT025 BKN050
     FM312000 02010KT P6SM VCSH SCT030 BKN050
     FM010400 35006KT P6SM SCT030 BKN050
     FM010700 24006KT P6SM SCT025 BKN040=

USA.gov is the U.S. government's official web portal to all federal, state and local government web resources and services.